Create Tblcommutelog Verified Points Advance Search
| # | Trip ID | Id Commuter | Trip Date | Trip Num | Current Lat | Current Lng | Delta Distance | Current Time | Activity | Activity Confidence | Current Speed | |
|---|---|---|---|---|---|---|---|---|---|---|---|---|
| 71141 | 250314_719367_16505892_0443 | 719367 | (not set) | (not set) | 38.858012637014 | -77.049828600057 | 36.2655 | 2025-03-14 10:07:16.092 | still | 33 | -0.44703925898772 | |
| 71142 | 250314_719367_16505892_0443 | 719367 | (not set) | (not set) | 38.858350333939 | -77.049087542941 | 36.2655 | 2025-03-14 10:08:02.625 | in_vehicle | 100 | -0.44703925898772 | |
| 71143 | 250314_719367_16505892_0443 | 719367 | (not set) | (not set) | 38.857508422843 | -77.046132171598 | 36.4679 | 2025-03-14 10:08:03.154 | in_vehicle | 100 | 4.7922608563484 | |
| 71144 | 250314_719367_16505892_0443 | 719367 | (not set) | (not set) | 38.856408667042 | -77.045102131317 | 36.5619 | 2025-03-14 10:08:52.237 | in_vehicle | 100 | 3.567373286722 | |
| 71145 | 250314_719367_16505892_0443 | 719367 | (not set) | (not set) | 38.855046191042 | -77.044806537778 | 36.6573 | 2025-03-14 10:09:04.201 | in_vehicle | 100 | 5.4359973892907 | |
| 71146 | 250314_719367_16505892_0443 | 719367 | (not set) | (not set) | 38.853754826391 | -77.04418694491 | 36.7524 | 2025-03-14 10:09:21.206 | in_vehicle | 100 | 2.9728110722684 | |
| 71147 | 250314_719367_16505892_0443 | 719367 | (not set) | (not set) | 38.852905299112 | -77.043782765922 | 36.8149 | 2025-03-14 10:10:15.279 | in_vehicle | 100 | 4.9263726340447 | |
| 71148 | 250314_719367_16505892_0443 | 719367 | (not set) | (not set) | 38.85160188268 | -77.043325363133 | 36.9081 | 2025-03-14 10:10:24.18 | in_vehicle | 100 | 7.139216966034 | |
| 71149 | 250314_719367_16505892_0443 | 719367 | (not set) | (not set) | 38.849774060158 | -77.043492078823 | 37.0346 | 2025-03-14 10:10:36.258 | in_vehicle | 100 | 7.2599175659606 | |
| 71150 | 250314_719367_16505892_0443 | 719367 | (not set) | (not set) | 38.848553570497 | -77.04541196755 | 37.168 | 2025-03-14 10:10:49.185 | in_vehicle | 100 | 7.0319275438769 | |
| 71151 | 250314_719367_16505892_0443 | 719367 | (not set) | (not set) | 38.847526278412 | -77.047437093629 | 37.2982 | 2025-03-14 10:11:01.231 | in_vehicle | 100 | 7.9707099877511 | |
| 71152 | 250314_719367_16505892_0443 | 719367 | (not set) | (not set) | 38.845771603903 | -77.049327040705 | 37.4565 | 2025-03-14 10:11:17.203 | in_vehicle | 100 | 8.8781996834962 | |
| 71153 | 250314_719367_16505892_0443 | 719367 | (not set) | (not set) | 38.843502950472 | -77.049105860927 | 37.6135 | 2025-03-14 10:11:30.223 | in_vehicle | 100 | 8.7932622242885 | |
| 71154 | 250314_719367_16505892_0443 | 719367 | (not set) | (not set) | 38.841279923724 | -77.048224827235 | 37.774 | 2025-03-14 10:11:44.217 | in_vehicle | 100 | 9.2894758017649 | |
| 71155 | 250314_719367_16505892_0443 | 719367 | (not set) | (not set) | 38.839291274834 | -77.046842968043 | 37.9301 | 2025-03-14 10:11:57.22 | in_vehicle | 100 | 7.1034538253149 | |
| 71156 | 250314_719367_16505892_0443 | 719367 | (not set) | (not set) | 38.837591061373 | -77.045966883406 | 38.0566 | 2025-03-14 10:12:08.37 | in_vehicle | 100 | 7.6130785805609 | |
| 71157 | 250314_719367_16505892_0443 | 719367 | (not set) | (not set) | 38.835741053984 | -77.045929714152 | 38.1842 | 2025-03-14 10:12:21.206 | in_vehicle | 100 | 5.8070399742505 | |
| 71158 | 250314_719367_16505892_0443 | 719367 | (not set) | (not set) | 38.83390529095 | -77.045966408016 | 38.3108 | 2025-03-14 10:12:45.385 | in_vehicle | 100 | 1.3634697399126 | |
| 71159 | 250314_719367_16505892_0443 | 719367 | (not set) | (not set) | 38.833719416406 | -77.046057690425 | 38.3108 | 2025-03-14 10:12:48.361 | in_vehicle | 100 | 0.91643048092483 | |
| 71160 | 250314_719367_16505892_0443 | 719367 | (not set) | (not set) | 38.833489380245 | -77.046386752067 | 38.3474 | 2025-03-14 10:12:51.19 | in_vehicle | 100 | 0.40233533308895 |